createdAt,value
2022-10-08T00:02:18.946Z,11.80
2022-10-08T00:04:55.389Z,11.80
2022-10-08T00:07:36.943Z,11.80
2022-10-08T00:10:07.690Z,11.80
2022-10-08T00:12:42.817Z,11.90
2022-10-08T00:15:11.805Z,11.90
2022-10-08T00:17:46.884Z,11.90
2022-10-08T00:20:16.900Z,11.90
2022-10-08T00:22:51.826Z,12.00
2022-10-08T00:25:20.158Z,12.00
2022-10-08T00:27:54.770Z,12.00
2022-10-08T00:30:23.121Z,12.00
2022-10-08T00:32:59.982Z,12.00
2022-10-08T00:35:29.958Z,12.00
2022-10-08T00:38:05.867Z,12.10
2022-10-08T00:40:34.282Z,12.10
2022-10-08T00:43:09.789Z,12.20
2022-10-08T00:45:40.159Z,12.20
2022-10-08T00:48:17.779Z,12.30
2022-10-08T00:50:49.429Z,12.30
2022-10-08T00:53:23.807Z,12.40
2022-10-08T00:55:52.232Z,12.40
2022-10-08T00:58:30.828Z,12.50
2022-10-08T01:00:59.803Z,12.50
2022-10-08T01:03:34.803Z,12.50
2022-10-08T01:06:21.218Z,12.50
2022-10-08T01:09:07.862Z,12.50
2022-10-08T01:11:46.351Z,12.50
2022-10-08T01:14:31.905Z,12.50
2022-10-08T01:17:08.696Z,12.50
2022-10-08T01:20:02.796Z,12.60
2022-10-08T01:22:49.890Z,12.60
2022-10-08T01:25:40.873Z,12.60
2022-10-08T01:28:18.420Z,12.60
2022-10-08T01:30:57.874Z,12.60
2022-10-08T01:33:30.647Z,12.60
2022-10-08T01:36:11.822Z,12.60
2022-10-08T01:38:45.024Z,12.60
2022-10-08T01:41:22.886Z,12.60
2022-10-08T01:43:59.306Z,12.70
2022-10-08T01:46:37.013Z,12.70
2022-10-08T01:49:11.641Z,12.70
2022-10-08T01:51:51.982Z,12.70
2022-10-08T01:54:22.077Z,12.70
2022-10-08T01:56:58.851Z,12.70
2022-10-08T01:59:34.003Z,12.80
2022-10-08T02:02:13.968Z,12.70
2022-10-08T02:04:43.174Z,12.70
2022-10-08T02:07:31.345Z,12.60
2022-10-08T02:10:07.899Z,12.50
2022-10-08T02:12:44.022Z,12.40
2022-10-08T02:15:17.882Z,12.30
2022-10-08T02:18:04.092Z,12.20
2022-10-08T02:20:36.930Z,12.20
2022-10-08T02:23:17.092Z,12.10
2022-10-08T02:25:51.166Z,12.10
2022-10-08T02:28:32.209Z,12.00
2022-10-08T02:31:08.238Z,12.00
2022-10-08T02:33:49.059Z,12.00
2022-10-08T02:36:23.177Z,12.00
2022-10-08T02:39:02.038Z,12.00
2022-10-08T02:41:35.267Z,12.00
2022-10-08T02:44:15.951Z,12.00
2022-10-08T02:46:50.107Z,12.00
2022-10-08T02:49:31.121Z,12.00
2022-10-08T02:52:02.448Z,12.00
2022-10-08T02:54:43.879Z,12.00
2022-10-08T02:57:17.292Z,12.00
2022-10-08T02:59:53.095Z,12.00
2022-10-08T03:02:29.820Z,12.00
2022-10-08T03:05:08.972Z,12.00
2022-10-08T03:07:44.961Z,12.00
2022-10-08T03:10:20.970Z,12.00
2022-10-08T03:12:49.793Z,12.00
2022-10-08T03:15:25.089Z,12.00
2022-10-08T03:17:55.420Z,12.00
2022-10-08T03:20:30.927Z,12.00
2022-10-08T03:23:02.161Z,11.90
2022-10-08T03:25:37.104Z,11.90
2022-10-08T03:28:05.878Z,11.90
2022-10-08T03:30:41.184Z,11.90
2022-10-08T03:33:11.284Z,11.90
2022-10-08T03:35:52.148Z,11.90
2022-10-08T03:38:20.359Z,11.90
2022-10-08T03:41:03.161Z,12.00
2022-10-08T03:43:33.665Z,11.90
2022-10-08T03:46:09.156Z,11.90
2022-10-08T03:48:40.243Z,11.90
2022-10-08T03:51:16.995Z,11.90
2022-10-08T03:53:46.141Z,11.80
2022-10-08T03:56:23.953Z,11.80
2022-10-08T03:58:57.208Z,11.80
2022-10-08T04:01:33.114Z,11.80
2022-10-08T04:04:03.274Z,11.80
2022-10-08T04:06:38.396Z,11.70
2022-10-08T04:09:06.876Z,11.70
2022-10-08T04:11:42.119Z,11.70
2022-10-08T04:14:10.878Z,11.70
2022-10-08T04:16:46.177Z,11.80
2022-10-08T04:19:17.661Z,11.80
2022-10-08T04:21:53.063Z,11.80
2022-10-08T04:24:21.628Z,11.80
2022-10-08T04:26:56.164Z,11.80
2022-10-08T04:29:24.524Z,11.80
2022-10-08T04:31:59.220Z,11.70
2022-10-08T04:34:30.260Z,11.70
2022-10-08T04:37:04.986Z,11.60
2022-10-08T04:39:33.373Z,11.60
2022-10-08T04:42:08.274Z,11.60
2022-10-08T04:44:36.599Z,11.60
2022-10-08T04:47:11.017Z,11.50
2022-10-08T04:49:40.824Z,11.50
2022-10-08T04:52:17.192Z,11.50
2022-10-08T04:54:45.697Z,11.50
2022-10-08T04:57:21.007Z,11.40
2022-10-08T05:00:13.545Z,11.50
2022-10-08T05:02:44.596Z,11.40
2022-10-08T05:05:22.194Z,11.40
2022-10-08T05:07:57.680Z,11.40
2022-10-08T05:10:32.180Z,11.40
2022-10-08T05:13:00.448Z,11.40
2022-10-08T05:15:35.297Z,11.30
2022-10-08T05:18:03.712Z,11.30
2022-10-08T05:20:40.271Z,11.30
2022-10-08T05:23:09.192Z,11.30
2022-10-08T05:25:44.115Z,11.30
2022-10-08T05:28:12.630Z,11.30
2022-10-08T05:30:47.102Z,11.30
2022-10-08T05:33:18.019Z,11.30
2022-10-08T05:35:54.061Z,11.20
2022-10-08T05:38:22.418Z,11.20
2022-10-08T05:40:57.105Z,11.20
2022-10-08T05:43:25.710Z,11.10
2022-10-08T05:46:01.149Z,11.10
2022-10-08T05:48:29.794Z,11.10
2022-10-08T05:51:12.144Z,11.10
2022-10-08T05:53:42.101Z,11.10
2022-10-08T05:56:20.259Z,11.10
2022-10-08T05:58:49.962Z,11.10
2022-10-08T06:01:27.191Z,11.00
2022-10-08T06:03:57.885Z,11.00
2022-10-08T06:06:43.163Z,11.00
2022-10-08T06:09:20.678Z,11.00
2022-10-08T06:11:56.205Z,11.00
2022-10-08T06:14:24.978Z,11.00
2022-10-08T06:17:00.144Z,10.90
2022-10-08T06:19:28.617Z,10.90
2022-10-08T06:22:05.127Z,10.90
2022-10-08T06:24:33.779Z,11.00
2022-10-08T06:27:09.089Z,10.90
2022-10-08T06:29:37.447Z,10.90
2022-10-08T06:32:12.156Z,10.90
2022-10-08T06:34:42.150Z,11.00
2022-10-08T06:37:19.169Z,11.00
2022-10-08T06:39:48.628Z,11.00
2022-10-08T06:42:23.284Z,11.00
2022-10-08T06:44:51.841Z,11.00
2022-10-08T06:47:27.379Z,11.00
2022-10-08T06:49:55.703Z,11.10
2022-10-08T06:52:32.171Z,11.10
2022-10-08T06:55:00.698Z,11.10
2022-10-08T06:57:36.184Z,11.20
2022-10-08T07:00:04.859Z,11.20
2022-10-08T07:02:40.423Z,11.20
2022-10-08T07:05:09.930Z,11.20
2022-10-08T07:07:53.223Z,11.20
2022-10-08T07:10:22.116Z,11.30
2022-10-08T07:12:57.209Z,11.30
2022-10-08T07:15:25.691Z,11.40
2022-10-08T07:18:00.239Z,11.40
2022-10-08T07:20:29.031Z,11.40
2022-10-08T07:23:05.145Z,11.50
2022-10-08T07:25:33.958Z,11.50
2022-10-08T07:28:09.517Z,11.60
2022-10-08T07:30:38.234Z,11.60
2022-10-08T07:33:13.308Z,11.70
2022-10-08T07:35:41.702Z,11.70
2022-10-08T07:38:18.316Z,11.80
2022-10-08T07:40:48.972Z,11.80
2022-10-08T07:43:24.324Z,11.80
2022-10-08T07:45:53.267Z,11.90
2022-10-08T07:48:31.614Z,12.00
2022-10-08T07:51:09.275Z,12.00
2022-10-08T07:53:46.129Z,12.10
2022-10-08T07:56:16.447Z,12.20
2022-10-08T07:58:52.166Z,12.20
2022-10-08T08:01:23.295Z,12.30
2022-10-08T08:04:02.336Z,12.30
2022-10-08T08:06:38.690Z,12.30
2022-10-08T08:09:15.303Z,12.40
2022-10-08T08:11:43.712Z,12.40
2022-10-08T08:14:18.173Z,12.50
2022-10-08T08:16:46.799Z,12.50
2022-10-08T08:19:22.203Z,12.60
2022-10-08T08:21:50.623Z,12.60
2022-10-08T08:24:27.356Z,12.70
2022-10-08T08:26:57.830Z,12.70
2022-10-08T08:29:33.402Z,12.80
2022-10-08T08:32:01.827Z,12.80
2022-10-08T08:34:37.208Z,12.80
2022-10-08T08:37:05.759Z,12.90
2022-10-08T08:39:42.242Z,12.90
2022-10-08T08:42:23.923Z,13.00
2022-10-08T08:45:06.246Z,13.10
2022-10-08T08:47:38.764Z,13.10
2022-10-08T08:50:20.304Z,13.10
2022-10-08T08:52:49.583Z,13.20
2022-10-08T08:55:29.249Z,13.30
2022-10-08T08:58:03.024Z,13.30
2022-10-08T09:00:44.387Z,13.40
2022-10-08T09:03:21.257Z,13.40
2022-10-08T09:06:00.521Z,13.40
2022-10-08T09:08:38.834Z,13.50
2022-10-08T09:11:20.439Z,13.50
2022-10-08T09:13:53.297Z,13.60
2022-10-08T09:16:43.529Z,13.70
2022-10-08T09:19:18.342Z,13.80
2022-10-08T09:21:53.478Z,13.80
2022-10-08T09:24:22.121Z,13.90
2022-10-08T09:27:00.352Z,13.90
2022-10-08T09:29:34.195Z,13.80
2022-10-08T09:32:09.439Z,13.80
2022-10-08T09:34:38.542Z,13.70
2022-10-08T09:37:27.431Z,13.60
2022-10-08T09:40:21.780Z,13.70
2022-10-08T09:43:26.479Z,14.00
2022-10-08T09:45:55.384Z,14.20
2022-10-08T09:48:33.408Z,14.40
2022-10-08T09:51:05.355Z,14.30
2022-10-08T09:53:47.296Z,14.30
2022-10-08T09:56:16.947Z,14.50
2022-10-08T09:59:07.357Z,14.80
2022-10-08T10:01:35.601Z,14.90
2022-10-08T10:04:13.371Z,14.90
2022-10-08T10:06:54.834Z,14.90
2022-10-08T10:09:48.450Z,14.60
2022-10-08T10:12:26.184Z,14.40
2022-10-08T10:15:06.463Z,14.20
2022-10-08T10:17:38.569Z,14.30
2022-10-08T10:20:21.426Z,14.50
2022-10-08T10:22:55.908Z,14.90
2022-10-08T10:25:42.496Z,14.90
2022-10-08T10:28:18.474Z,14.80
2022-10-08T10:31:03.569Z,14.90
2022-10-08T10:33:35.771Z,15.10
2022-10-08T10:36:24.329Z,15.30
2022-10-08T10:38:57.261Z,15.60
2022-10-08T10:41:39.512Z,15.60
2022-10-08T10:44:12.845Z,15.70
2022-10-08T10:46:56.345Z,15.90
2022-10-08T10:49:29.173Z,16.20
2022-10-08T10:52:11.515Z,16.30
2022-10-08T10:55:04.265Z,15.90
2022-10-08T10:57:54.323Z,15.70
2022-10-08T11:00:26.272Z,15.40
2022-10-08T11:03:10.593Z,15.50
2022-10-08T11:05:41.504Z,15.80
2022-10-08T11:08:37.346Z,16.10
2022-10-08T11:11:20.029Z,16.40
2022-10-08T11:14:08.514Z,16.50
2022-10-08T11:16:47.583Z,16.40
2022-10-08T11:19:39.409Z,16.40
2022-10-08T11:22:15.640Z,16.50
2022-10-08T11:25:06.390Z,16.70
2022-10-08T11:27:43.130Z,16.70
2022-10-08T11:30:21.389Z,16.40
2022-10-08T11:32:53.701Z,16.40
2022-10-08T11:35:37.408Z,16.10
2022-10-08T11:38:12.973Z,16.00
2022-10-08T11:40:52.545Z,16.00
2022-10-08T11:43:29.388Z,15.90
2022-10-08T11:46:35.490Z,16.00
2022-10-08T11:49:11.650Z,16.30
2022-10-08T11:51:49.598Z,16.40
2022-10-08T11:54:25.356Z,16.30
2022-10-08T11:57:19.443Z,16.20
2022-10-08T11:59:49.928Z,16.30
2022-10-08T12:02:34.508Z,16.40
2022-10-08T12:05:21.283Z,16.60
2022-10-08T12:08:07.488Z,16.40
2022-10-08T12:10:37.144Z,16.30
2022-10-08T12:13:35.452Z,16.30
2022-10-08T12:16:07.027Z,16.60
2022-10-08T12:19:00.490Z,16.90
2022-10-08T12:21:50.667Z,16.90
2022-10-08T12:25:01.442Z,16.60
2022-10-08T12:27:44.292Z,16.00
2022-10-08T12:30:20.555Z,15.50
2022-10-08T12:32:59.130Z,15.50
2022-10-08T12:35:38.589Z,15.50
2022-10-08T12:38:25.653Z,15.60
2022-10-08T12:41:17.780Z,15.90
2022-10-08T12:43:53.610Z,16.10
2022-10-08T12:46:37.731Z,16.40
2022-10-08T12:49:17.308Z,16.50
2022-10-08T12:51:58.459Z,16.50
2022-10-08T12:54:29.305Z,16.70
2022-10-08T12:57:05.463Z,17.00
2022-10-08T12:59:35.939Z,17.30
2022-10-08T13:02:11.690Z,17.20
2022-10-08T13:04:47.933Z,17.30
2022-10-08T13:07:38.509Z,17.30
2022-10-08T13:10:20.509Z,17.30
2022-10-08T13:13:07.590Z,17.30
2022-10-08T13:15:37.813Z,17.20
2022-10-08T13:18:22.461Z,17.50
2022-10-08T13:20:59.182Z,17.60
2022-10-08T13:23:40.743Z,17.30
2022-10-08T13:26:43.110Z,17.10
2022-10-08T13:29:39.476Z,17.30
2022-10-08T13:32:20.974Z,17.00
2022-10-08T13:34:58.503Z,16.70
2022-10-08T13:37:31.551Z,16.20
2022-10-08T13:40:08.683Z,16.10
2022-10-08T13:42:41.917Z,16.30
2022-10-08T13:45:21.666Z,16.20
2022-10-08T13:47:52.542Z,15.90
2022-10-08T13:50:27.527Z,15.80
2022-10-08T13:53:00.508Z,15.80
2022-10-08T13:55:37.521Z,15.80
2022-10-08T13:58:07.855Z,16.00
2022-10-08T14:00:46.715Z,16.10
2022-10-08T14:03:17.091Z,16.10
2022-10-08T14:05:54.581Z,16.10
2022-10-08T14:08:36.397Z,15.90
2022-10-08T14:11:18.705Z,15.70
2022-10-08T14:13:47.035Z,15.60
2022-10-08T14:16:21.616Z,15.50
2022-10-08T14:18:51.686Z,15.40
2022-10-08T14:21:29.637Z,15.30
2022-10-08T14:23:57.947Z,15.30
2022-10-08T14:26:32.563Z,15.40
2022-10-08T14:29:01.367Z,15.40
2022-10-08T14:31:36.763Z,15.50
2022-10-08T14:34:07.265Z,15.60
2022-10-08T14:36:44.553Z,15.70
2022-10-08T14:39:19.565Z,15.70
2022-10-08T14:41:47.897Z,15.80
2022-10-08T14:44:23.795Z,15.80
2022-10-08T14:46:58.725Z,15.90
2022-10-08T14:49:41.521Z,15.80
2022-10-08T14:52:11.561Z,15.80
2022-10-08T14:54:47.538Z,15.80
2022-10-08T14:57:15.754Z,15.80
2022-10-08T14:59:50.542Z,15.70
2022-10-08T15:02:18.788Z,15.70
2022-10-08T15:04:54.541Z,15.80
2022-10-08T15:07:22.683Z,15.70
2022-10-08T15:09:57.559Z,15.70
2022-10-08T15:12:25.704Z,15.60
2022-10-08T15:15:00.565Z,15.60
2022-10-08T15:17:28.650Z,15.50
2022-10-08T15:20:05.611Z,15.50
2022-10-08T15:22:33.750Z,15.50
2022-10-08T15:25:10.486Z,15.60
2022-10-08T15:27:38.630Z,15.60
2022-10-08T15:30:14.594Z,15.70
2022-10-08T15:32:44.735Z,15.60
2022-10-08T15:35:21.511Z,15.50
2022-10-08T15:37:49.765Z,15.50
2022-10-08T15:40:24.574Z,15.50
2022-10-08T15:42:52.696Z,15.40
2022-10-08T15:45:27.584Z,15.30
2022-10-08T15:48:01.922Z,15.20
2022-10-08T15:50:38.584Z,15.00
2022-10-08T15:53:07.020Z,14.90
2022-10-08T15:55:41.600Z,14.80
2022-10-08T15:58:09.947Z,14.80
2022-10-08T16:00:44.632Z,14.80
2022-10-08T16:03:12.744Z,14.80
2022-10-08T16:05:49.575Z,14.80
2022-10-08T16:08:17.660Z,14.80
2022-10-08T16:10:56.128Z,14.70
2022-10-08T16:13:26.234Z,14.70
2022-10-08T16:16:00.600Z,14.60
2022-10-08T16:18:28.684Z,14.60
2022-10-08T16:21:04.575Z,14.50
2022-10-08T16:23:34.494Z,14.40
2022-10-08T16:26:09.757Z,14.40
2022-10-08T16:28:39.602Z,14.30
2022-10-08T16:31:15.666Z,14.30
2022-10-08T16:33:44.280Z,14.20
2022-10-08T16:36:21.638Z,14.20
2022-10-08T16:38:50.088Z,14.10
2022-10-08T16:41:26.626Z,14.10
2022-10-08T16:43:57.542Z,14.10
2022-10-08T16:46:41.664Z,14.00
2022-10-08T16:49:26.358Z,14.00
2022-10-08T16:52:04.913Z,13.90
2022-10-08T16:54:33.790Z,13.90
2022-10-08T16:57:08.657Z,13.80
2022-10-08T16:59:36.818Z,13.70
2022-10-08T17:02:12.752Z,13.70
2022-10-08T17:04:40.942Z,13.60
2022-10-08T17:07:16.645Z,13.50
2022-10-08T17:09:45.200Z,13.50
2022-10-08T17:12:21.826Z,13.40
2022-10-08T17:14:50.340Z,13.40
2022-10-08T17:17:24.649Z,13.40
2022-10-08T17:19:52.814Z,13.40
2022-10-08T17:22:28.684Z,13.30
2022-10-08T17:24:56.827Z,13.40
2022-10-08T17:27:31.665Z,13.20
2022-10-08T17:29:59.820Z,13.10
2022-10-08T17:32:34.645Z,13.00
2022-10-08T17:35:02.711Z,13.00
2022-10-08T17:37:38.647Z,13.00
2022-10-08T17:40:08.029Z,12.90
2022-10-08T17:42:42.664Z,12.80
2022-10-08T17:45:11.317Z,12.80
2022-10-08T17:47:54.690Z,12.80
2022-10-08T17:50:22.897Z,12.70
2022-10-08T17:52:58.698Z,12.60
2022-10-08T17:55:26.743Z,12.60
2022-10-08T17:58:01.688Z,12.50
2022-10-08T18:00:29.780Z,12.50
2022-10-08T18:03:04.775Z,12.40
2022-10-08T18:05:32.872Z,12.30
2022-10-08T18:08:08.711Z,12.20
2022-10-08T18:10:38.869Z,12.20
2022-10-08T18:13:14.895Z,12.10
2022-10-08T18:15:43.081Z,12.00
2022-10-08T18:18:17.703Z,11.90
2022-10-08T18:21:01.715Z,11.80
2022-10-08T18:23:32.191Z,11.70
2022-10-08T18:26:18.723Z,11.70
2022-10-08T18:28:47.805Z,11.60
2022-10-08T18:31:23.799Z,11.50
2022-10-08T18:33:55.414Z,11.40
2022-10-08T18:36:31.718Z,11.30
2022-10-08T18:39:02.871Z,11.30
2022-10-08T18:41:41.732Z,11.20
2022-10-08T18:44:12.637Z,11.20
2022-10-08T18:46:54.730Z,11.20
2022-10-08T18:49:29.495Z,11.20
2022-10-08T18:52:04.752Z,11.10
2022-10-08T18:54:34.456Z,11.00
2022-10-08T18:57:08.717Z,11.00
2022-10-08T18:59:36.800Z,10.90
2022-10-08T19:02:11.881Z,10.90
2022-10-08T19:04:40.197Z,10.90
2022-10-08T19:07:14.816Z,10.80
2022-10-08T19:09:44.239Z,10.80
2022-10-08T19:12:18.759Z,10.70
2022-10-08T19:14:46.922Z,10.60
2022-10-08T19:17:21.773Z,10.60
2022-10-08T19:19:50.319Z,10.60
2022-10-08T19:22:24.776Z,10.60
2022-10-08T19:24:54.235Z,10.50
2022-10-08T19:27:29.809Z,10.50
2022-10-08T19:29:57.822Z,10.50
2022-10-08T19:32:32.792Z,10.50
2022-10-08T19:35:00.829Z,10.50
2022-10-08T19:37:35.795Z,10.40
2022-10-08T19:40:05.942Z,10.40
2022-10-08T19:42:40.788Z,10.40
2022-10-08T19:45:09.736Z,10.30
2022-10-08T19:47:50.806Z,10.30
2022-10-08T19:50:19.107Z,10.20
2022-10-08T19:52:57.326Z,10.30
2022-10-08T19:55:27.210Z,10.20
2022-10-08T19:58:01.806Z,10.20
2022-10-08T20:00:29.886Z,10.20
2022-10-08T20:03:04.845Z,10.10
2022-10-08T20:05:33.643Z,10.00
2022-10-08T20:08:07.779Z,9.90
2022-10-08T20:10:41.820Z,9.90
2022-10-08T20:13:16.822Z,9.90
2022-10-08T20:15:51.123Z,10.00
2022-10-08T20:18:25.815Z,9.80
2022-10-08T20:21:01.744Z,9.70
2022-10-08T20:23:36.807Z,9.70
2022-10-08T20:26:18.178Z,9.80
2022-10-08T20:28:55.858Z,9.70
2022-10-08T20:31:25.525Z,9.70
2022-10-08T20:34:03.830Z,9.70
2022-10-08T20:36:33.059Z,9.70
2022-10-08T20:39:07.836Z,9.60
2022-10-08T20:41:37.296Z,9.60
2022-10-08T20:44:12.847Z,9.60
2022-10-08T20:46:49.128Z,9.60
2022-10-08T20:49:23.846Z,9.60
2022-10-08T20:51:51.879Z,9.60
2022-10-08T20:54:26.843Z,9.60
2022-10-08T20:56:56.225Z,9.50
2022-10-08T20:59:30.843Z,9.50
2022-10-08T21:01:58.926Z,9.50
2022-10-08T21:04:33.837Z,9.40
2022-10-08T21:07:01.906Z,9.40
2022-10-08T21:09:36.861Z,9.40
2022-10-08T21:12:06.452Z,9.40
2022-10-08T21:14:40.883Z,9.40
2022-10-08T21:17:09.070Z,9.30
2022-10-08T21:19:44.011Z,9.30
2022-10-08T21:22:12.041Z,9.30
2022-10-08T21:24:46.878Z,9.30
2022-10-08T21:27:16.320Z,9.30
2022-10-08T21:29:50.908Z,9.30
2022-10-08T21:32:18.956Z,9.30
2022-10-08T21:34:53.914Z,9.30
2022-10-08T21:37:21.942Z,9.20
2022-10-08T21:39:56.856Z,9.20
2022-10-08T21:42:26.305Z,9.20
2022-10-08T21:45:00.886Z,9.20
2022-10-08T21:47:48.986Z,9.20
2022-10-08T21:50:24.035Z,9.20
2022-10-08T21:52:52.061Z,9.20
2022-10-08T21:55:29.070Z,9.20
2022-10-08T21:57:58.475Z,9.20
2022-10-08T22:00:40.993Z,9.20
2022-10-08T22:03:09.085Z,9.20
2022-10-08T22:05:44.061Z,9.20
2022-10-08T22:08:12.108Z,9.30
2022-10-08T22:10:46.893Z,9.30
2022-10-08T22:13:16.532Z,9.30
2022-10-08T22:15:59.031Z,9.40
2022-10-08T22:18:30.435Z,9.20
2022-10-08T22:21:07.919Z,9.10
2022-10-08T22:23:37.161Z,9.10
2022-10-08T22:26:13.949Z,9.10
2022-10-08T22:28:44.186Z,9.00
2022-10-08T22:31:20.939Z,9.00
2022-10-08T22:33:52.952Z,9.00
2022-10-08T22:36:28.983Z,9.00
2022-10-08T22:38:58.272Z,9.00
2022-10-08T22:41:36.002Z,9.10
2022-10-08T22:44:05.893Z,9.10
2022-10-08T22:46:43.948Z,9.10
2022-10-08T22:49:18.882Z,9.10
2022-10-08T22:51:53.948Z,9.10
2022-10-08T22:54:22.198Z,9.10
2022-10-08T22:56:57.135Z,9.00
2022-10-08T22:59:26.660Z,9.00
2022-10-08T23:02:00.960Z,9.10
2022-10-08T23:04:29.064Z,9.10
2022-10-08T23:07:03.970Z,9.10
2022-10-08T23:09:32.073Z,9.10
2022-10-08T23:12:06.995Z,9.10
2022-10-08T23:14:36.657Z,9.10
2022-10-08T23:17:10.969Z,9.10
2022-10-08T23:19:39.295Z,9.10
2022-10-08T23:22:14.131Z,9.10
2022-10-08T23:24:49.007Z,9.30
2022-10-08T23:27:17.252Z,9.10
2022-10-08T23:29:52.976Z,9.10
2022-10-08T23:32:21.006Z,9.10
2022-10-08T23:34:56.041Z,9.20
2022-10-08T23:37:24.141Z,9.20
2022-10-08T23:39:59.109Z,9.20
2022-10-08T23:42:27.183Z,9.20
2022-10-08T23:45:03.215Z,9.10
2022-10-08T23:47:38.181Z,9.10
2022-10-08T23:50:18.987Z,9.10
2022-10-08T23:52:47.418Z,9.00
2022-10-08T23:55:22.010Z,9.00
2022-10-08T23:57:50.047Z,9.00
